• Join FlightAware (Why Join?)
  • Login
  • US Flag 
06:37PM EDT


 

Airport Tracker/Info


-or-


 

Live Flight TrackerFlight Track Log ✈ N531QS ✈ 03-Oct-2013 ✈ KHPN - KOSU

Flight Track Log - Related Links

Times and Time Zones

All times are in EDT time to prevent confusion due to time zone crossing. See the N531QS flight status page for this flight to view local times or setup timezone preferences in your user account.

Time Position Orientation Groundspeed Altitude Reporting Facility
EDT Latitude Longitude Course Direction KTS MPH feet Rate Location/Type
10:09AM 41.1000 -73.7667 252° West 199 229 3,000  Level New York TRACON
10:10AM 41.1167 -73.8500 285° West 244 281 5,200 2,460 Climbing New York TRACON
10:11AM 41.0667 -73.9167 225° Southwest 272 313 7,700 1,980 Climbing New York TRACON
10:12AM 41.0000 -73.9833 217° Southwest 277 319 9,200 1,500 Climbing New York TRACON
10:13AM 40.9500 -74.0500 225° Southwest 295 339 10,800 2,340 Climbing New York TRACON
10:14AM 40.9000 -74.1667 240° Southwest 338 389 14,000 2,940 Climbing New York TRACON
10:15AM 41.0098 -74.5546 252° West  Level Estimated
10:15AM 40.8833 -74.2833 259° West 360 414 16,700  Level New York TRACON
10:17AM 40.8564 -74.5792 263° West 384 442 18,500 1,260 Climbing New York Center
10:18AM 40.8464 -74.6992 264° West 379 436 20,800 2,520 Climbing New York Center
10:19AM 40.8289 -74.8408 261° West 384 442 23,500 2,520 Climbing New York Center
10:20AM 40.7908 -74.9811 250° West 390 449 26,000 2,460 Climbing New York Center
10:21AM 40.7481 -75.1208 248° West 402 463 28,500 2,100 Climbing New York Center
10:22AM 40.7072 -75.2661 250° West 414 476 30,200 1,860 Climbing New York Center
10:23AM 40.6589 -75.4381 250° West 445 512 32,300 2,160 Climbing New York Center
10:24AM 40.6153 -75.5881 249° West 458 527 34,600 2,220 Climbing New York Center
10:25AM 40.5717 -75.7381 249° West 453 521 36,800 2,100 Climbing New York Center
10:26AM 40.5300 -75.8825 249° West 442 509 38,800 1,620 Climbing New York Center
10:27AM 40.4844 -76.0183 246° West 447 514 40,100 1,200 Climbing New York Center
10:28AM 40.4406 -76.1622 248° West 447 514 41,300 1,020 Climbing New York Center
10:29AM 40.3961 -76.3114 249° West 447 514 42,200 780 Climbing New York Center
10:30AM 40.3467 -76.4736 248° West 442 509 42,900 360 Climbing New York Center
10:31AM 40.3286 -76.6328 262° West 442 509 43,000  Climbing New York Center
10:32AM 40.3139 -76.8006 263° West 449 517 43,000  Level New York Center
10:33AM 40.3011 -76.9628 264° West 454 522 43,000  Level New York Center
10:34AM 40.2864 -77.1247 263° West 454 522 43,000  Level New York Center
10:36AM 40.2628 -77.4175 264° West 452 520 43,000  Level Cleveland Center
10:37AM 40.2483 -77.5800 263° West 450 518 43,000  Level Cleveland Center
10:38AM 40.2325 -77.7433 263° West 453 521 43,000  Level Cleveland Center
10:39AM 40.2150 -77.9281 263° West 451 519 43,000  Level Cleveland Center
10:40AM 40.1992 -78.0922 263° West 454 522 43,000  Level Cleveland Center
10:41AM 40.1767 -78.2525 260° West 451 519 43,000  Level Cleveland Center
10:42AM 40.1289 -78.4083 248° West 459 528 43,000  Level Cleveland Center
10:43AM 40.0725 -78.5956 249° West 465 535 43,000 -540 Level Cleveland Center
10:44AM 40.0575 -78.7603 263° West 460 529 41,900 -1,920 Descending Cleveland Center
10:46AM 40.0433 -78.9281 264° West 467 537 39,100 -2,640 Descending Cleveland Center
10:47AM 40.0297 -79.0833 264° West 463 533 36,500 -2,880 Descending Cleveland Center
10:48AM 40.0144 -79.2869 264° West 477 549 33,100 -2,220 Descending Cleveland Center
10:49AM 39.9994 -79.4600 264° West 488 562 32,000 -540 Descending Cleveland Center
10:50AM 39.9828 -79.6331 263° West 483 556 32,000 -420 Level Cleveland Center
10:52AM 39.9519 -79.9839 264° West 484 557 30,800 -1,200 Descending Cleveland Center
10:53AM 39.9364 -80.1569 263° West 482 555 28,300 -2,340 Descending Cleveland Center
10:54AM 39.9197 -80.3208 262° West 465 535 26,000 -1,140 Descending Cleveland Center
10:55AM 39.9014 -80.5142 263° West 450 518 26,000  Level Cleveland Center
10:56AM 39.8858 -80.6775 263° West 452 520 26,000 -60 Level Cleveland Center
10:57AM 39.8689 -80.8403 262° West 454 522 25,900 -780 Descending Cleveland Center
10:58AM 39.8522 -81.0025 262° West 452 520 24,400 -1,740 Descending Cleveland Center
10:59AM 39.8356 -81.1600 262° West 443 510 22,400 -2,160 Descending Cleveland Center
11:00AM 39.8200 -81.3131 263° West 431 496 20,000 -2,220 Descending Cleveland Center
11:01AM 39.8042 -81.4689 263° West 414 476 17,900 -1,500 Descending Cleveland Center
11:02AM 39.7861 -81.6303 262° West 399 459 17,000 -1,260 Descending Cleveland Center
11:03AM 39.8197 -81.7744 287° West 408 470 15,300 -1,800 Descending Cleveland Center
11:04AM 39.8519 -81.9078 288° West 388 447 13,300 -1,980 Descending Cleveland Center
11:05AM 39.8764 -82.0411 283° West 377 434 11,300 -1,620 Descending Cleveland Center
11:06AM 39.9083 -82.1644 289° West 362 417 10,000 -660 Descending Cleveland Center
11:07AM 39.9425 -82.2917 289° West 364 419 10,000 -300 Level Cleveland Center
11:08AM 39.9733 -82.4119 289° West 355 409 9,500 -960 Descending Cleveland Center
11:09AM 39.9986 -82.5072 289° West 294 338 8,100 -1,260 Descending Cleveland Center
11:10AM 40.0239 -82.6033 289° West 277 319 6,900 -1,200 Descending Cleveland Center
11:11AM 40.0478 -82.6967 289° West 275 316 5,700 -1,080 Descending Cleveland Center
11:12AM 40.0708 -82.7847 289° West 267 307 4,700 -900 Descending Cleveland Center
11:14AM 40.0850 -82.8767 281° West 152 175 3,600 -780 Descending Indianapolis Center
11:15AM 40.0819 -82.9308 266° West 147 169 2,900 -720 Descending Indianapolis Center
11:16AM 40.0814 -82.9828 269° West 124 143 2,200 -720 Descending Indianapolis Center
11:17AM 40.0792 -83.0261 266° West 123 142 1,500 -720 Descending Indianapolis Center